Time;durP1;ratioP1;P1;durP2;ratioP2;P2;SDS_P1;SDS_P2;PMS_P1;PMS_P2;Temp;Humidity;BMP_temperature;BMP_pressure;BME280_temperature;BME280_humidity;BME280_pressure;Samples;Min_cycle;Max_cycle;Signal;HPM_P1;HPM_P2
2021/03/01 00:02:20;;;;;;;79.40;41.38;;;;;;;;;;4939901;29;20625;-94
2021/03/01 00:04:52;;;;;;;73.68;40.33;;;;;;;;;;4939962;29;20059;-94
2021/03/01 00:07:24;;;;;;;83.07;41.93;;;;;;;;;;4939849;29;20304;-94
2021/03/01 00:09:55;;;;;;;77.22;42.22;;;;;;;;;;4923630;29;20038;-94
2021/03/01 00:23:39;;;;;;;81.45;42.55;;;;;;;;;;5052714;23;20051;-95
2021/03/01 00:31:34;;;;;;;84.40;42.75;;;;;;;;;;4978307;28;20051;-90
2021/03/01 00:37:13;;;;;;;92.20;45.80;;;;;;;;;;4979370;28;20065;-91
2021/03/01 00:39:45;;;;;;;88.53;45.35;;;;;;;;;;4979253;28;20410;-89
2021/03/01 00:42:16;;;;;;;86.00;43.97;;;;;;;;;;4979349;28;20456;-90
2021/03/01 00:44:48;;;;;;;89.10;43.70;;;;;;;;;;4979405;28;20041;-94
2021/03/01 00:47:20;;;;;;;88.23;43.47;;;;;;;;;;4978500;28;20030;-93
2021/03/01 00:49:52;;;;;;;86.90;42.05;;;;;;;;;;4979757;28;20675;-95
2021/03/01 00:52:25;;;;;;;81.70;41.45;;;;;;;;;;4979815;28;20031;-96
2021/03/01 00:54:53;;;;;;;;;;;;;;;;;;4980208;28;20034;-95
2021/03/01 00:57:26;;;;;;;78.45;39.33;;;;;;;;;;4979406;28;19906;-95
2021/03/01 00:59:57;;;;;;;78.68;40.47;;;;;;;;;;4978388;28;20038;-96
2021/03/01 01:02:45;;;;;;;80.53;41.00;;;;;;;;;;4979487;28;20031;-96
2021/03/01 01:05:17;;;;;;;81.22;41.55;;;;;;;;;;4978847;28;20031;-93
2021/03/01 01:07:45;;;;;;;79.57;40.13;;;;;;;;;;4978039;28;20058;-93
2021/03/01 01:10:17;;;;;;;86.57;41.60;;;;;;;;;;4978787;28;20038;-91
2021/03/01 01:12:44;;;;;;;81.45;40.67;;;;;;;;;;4979010;28;20027;-93
2021/03/01 01:15:18;;;;;;;73.57;40.28;;;;;;;;;;4978944;28;20445;-93
2021/03/01 01:17:50;;;;;;;69.45;38.22;;;;;;;;;;4962573;28;20169;-92
2021/03/01 01:20:22;;;;;;;82.13;40.33;;;;;;;;;;4978846;28;20098;-92
2021/03/01 01:22:53;;;;;;;75.55;39.72;;;;;;;;;;4978694;28;20034;-92
2021/03/01 01:25:25;;;;;;;72.40;37.75;;;;;;;;;;4979138;28;20035;-92
2021/03/01 01:27:59;;;;;;;66.65;37.15;;;;;;;;;;4978635;28;20043;-90
2021/03/01 01:30:33;;;;;;;67.90;36.45;;;;;;;;;;4977583;28;20460;-90
2021/03/01 01:33:03;;;;;;;67.20;35.70;;;;;;;;;;4978904;28;20027;-89
2021/03/01 01:35:35;;;;;;;66.18;35.47;;;;;;;;;;4977868;28;20038;-90
2021/03/01 01:38:08;;;;;;;66.32;36.60;;;;;;;;;;4978891;28;20042;-92
2021/03/01 01:40:41;;;;;;;63.10;34.65;;;;;;;;;;4977568;28;20023;-90
2021/03/01 01:43:10;;;;;;;;;;;;;;;;;;4978074;28;20034;-90
2021/03/01 01:45:39;;;;;;;66.18;34.50;;;;;;;;;;4977726;28;19906;-94
2021/03/01 01:48:11;;;;;;;68.57;34.22;;;;;;;;;;4978532;28;20398;-93
2021/03/01 01:50:43;;;;;;;62.47;34.10;;;;;;;;;;4978769;28;20093;-89
2021/03/01 01:53:15;;;;;;;64.70;35.05;;;;;;;;;;4978567;28;20026;-88
2021/03/01 01:55:47;;;;;;;62.78;34.63;;;;;;;;;;4978365;28;20023;-89
2021/03/01 01:58:21;;;;;;;63.75;34.63;;;;;;;;;;4978681;28;20338;-89
2021/03/01 02:00:54;;;;;;;61.38;36.97;;;;;;;;;;4977628;28;20337;-89
2021/03/01 02:03:39;;;;;;;65.05;35.83;;;;;;;;;;4978436;28;20023;-89
2021/03/01 02:06:30;;;;;;;75.72;40.08;;;;;;;;;;4978262;28;20035;-90
2021/03/01 02:09:14;;;;;;;76.32;41.55;;;;;;;;;;4977510;28;20110;-91
2021/03/01 02:11:56;;;;;;;78.78;42.80;;;;;;;;;;4978373;28;20031;-92
2021/03/01 02:14:28;;;;;;;69.28;38.55;;;;;;;;;;4977506;28;20023;-93
2021/03/01 02:16:58;;;;;;;62.35;35.75;;;;;;;;;;4978237;28;20417;-92
2021/03/01 02:19:30;;;;;;;66.00;34.97;;;;;;;;;;4978410;28;20046;-92
2021/03/01 02:22:02;;;;;;;64.93;35.85;;;;;;;;;;4978561;28;20023;-92
2021/03/01 02:24:47;;;;;;;64.65;35.20;;;;;;;;;;4978672;28;20031;-95
2021/03/01 02:27:26;;;;;;;98.32;48.75;;;;;;;;;;4978453;28;20023;-95
2021/03/01 02:30:11;;;;;;;81.30;42.72;;;;;;;;;;4978187;28;20074;-93
2021/03/01 02:36:19;;;;;;;72.53;39.17;;;;;;;;;;4981792;28;20033;-92
2021/03/01 02:38:52;;;;;;;68.95;37.17;;;;;;;;;;4960614;28;20150;-93
2021/03/01 02:41:26;;;;;;;64.82;35.10;;;;;;;;;;4960701;29;20410;-94
2021/03/01 02:43:57;;;;;;;67.22;35.97;;;;;;;;;;4960968;29;20330;-93
2021/03/01 02:46:29;;;;;;;63.67;35.47;;;;;;;;;;4960502;28;20031;-93
2021/03/01 02:49:17;;;;;;;60.45;35.50;;;;;;;;;;4960725;29;20043;-93
2021/03/01 02:51:52;;;;;;;58.85;31.95;;;;;;;;;;4960297;29;20078;-93
2021/03/01 02:54:24;;;;;;;57.30;31.88;;;;;;;;;;4960541;29;20035;-93
2021/03/01 02:56:54;;;;;;;86.78;43.83;;;;;;;;;;4960391;29;20031;-94
2021/03/01 02:59:27;;;;;;;74.00;36.03;;;;;;;;;;4960398;29;20067;-93
2021/03/01 03:01:56;;;;;;;;;;;;;;;;;;4960621;28;20047;-93
2021/03/01 03:07:32;;;;;;;64.15;32.83;;;;;;;;;;4960545;29;20030;-94
2021/03/01 03:10:04;;;;;;;90.15;43.47;;;;;;;;;;4960325;28;20066;-92
2021/03/01 03:12:37;;;;;;;100.88;47.65;;;;;;;;;;4969294;28;20417;-93
2021/03/01 03:15:09;;;;;;;78.70;41.58;;;;;;;;;;4981244;28;20102;-93
2021/03/01 03:17:38;;;;;;;;;;;;;;;;;;4981250;28;20027;-93
2021/03/01 03:20:11;;;;;;;59.15;32.40;;;;;;;;;;4981095;28;20200;-93
2021/03/01 03:22:37;;;;;;;58.25;31.98;;;;;;;;;;4981201;28;20022;-92
2021/03/01 03:25:11;;;;;;;55.17;30.20;;;;;;;;;;4981140;28;20093;-93
2021/03/01 03:27:43;;;;;;;56.05;29.63;;;;;;;;;;4980749;28;20030;-95
2021/03/01 03:30:17;;;;;;;55.25;29.83;;;;;;;;;;4979701;28;20078;-93
2021/03/01 03:32:50;;;;;;;50.67;29.13;;;;;;;;;;4980616;28;20106;-93
2021/03/01 03:35:22;;;;;;;56.80;29.48;;;;;;;;;;4981049;28;20046;-93
2021/03/01 03:37:58;;;;;;;50.45;28.23;;;;;;;;;;4980868;28;20023;-93
2021/03/01 03:40:31;;;;;;;49.33;27.02;;;;;;;;;;4979576;28;20098;-93
2021/03/01 03:43:03;;;;;;;49.97;27.58;;;;;;;;;;4980503;28;20022;-95
2021/03/01 03:45:37;;;;;;;53.15;28.35;;;;;;;;;;4979558;28;20034;-94
2021/03/01 03:48:09;;;;;;;53.35;29.30;;;;;;;;;;4979482;28;20058;-94
2021/03/01 03:50:38;;;;;;;;;;;;;;;;;;4980566;28;20054;-93
2021/03/01 03:53:12;;;;;;;83.00;41.00;;;;;;;;;;4980230;28;19949;-92
2021/03/01 03:55:46;;;;;;;91.45;42.47;;;;;;;;;;4980376;28;20105;-94
2021/03/01 03:58:19;;;;;;;106.05;46.92;;;;;;;;;;4979259;28;20058;-93
2021/03/01 04:00:48;;;;;;;;;;;;;;;;;;4980550;28;20035;-93
2021/03/01 04:03:22;;;;;;;97.68;46.92;;;;;;;;;;4980002;28;19969;-93
2021/03/01 04:05:56;;;;;;;103.47;47.17;;;;;;;;;;4979994;28;20098;-92
2021/03/01 04:08:30;;;;;;;90.00;42.65;;;;;;;;;;4979168;28;20031;-94
2021/03/01 04:11:02;;;;;;;76.78;39.25;;;;;;;;;;4980076;28;20023;-94
2021/03/01 04:13:35;;;;;;;82.68;41.53;;;;;;;;;;4980748;28;20027;-94
2021/03/01 04:16:04;;;;;;;78.43;38.45;;;;;;;;;;4979876;28;20031;-94
2021/03/01 04:18:38;;;;;;;68.82;36.10;;;;;;;;;;4980048;28;20254;-95
2021/03/01 04:21:12;;;;;;;66.80;34.92;;;;;;;;;;4983126;28;20022;-96
2021/03/01 04:23:45;;;;;;;65.40;33.40;;;;;;;;;;4979865;28;20027;-94
2021/03/01 04:26:18;;;;;;;69.40;32.88;;;;;;;;;;4978719;28;20038;-94
2021/03/01 04:28:46;;;;;;;;;;;;;;;;;;4979926;28;20027;-94
2021/03/01 04:31:17;;;;;;;67.85;34.00;;;;;;;;;;4978404;28;19922;-94
2021/03/01 04:33:51;;;;;;;64.75;33.55;;;;;;;;;;4978538;28;20489;-94
2021/03/01 04:36:24;;;;;;;65.05;33.85;;;;;;;;;;4979512;28;20061;-92
2021/03/01 04:38:56;;;;;;;71.72;34.13;;;;;;;;;;4978677;28;20027;-94
2021/03/01 04:41:27;;;;;;;60.15;31.75;;;;;;;;;;4979631;28;20117;-93
2021/03/01 04:44:01;;;;;;;65.95;30.40;;;;;;;;;;4979699;28;20019;-93
2021/03/01 04:46:33;;;;;;;70.50;35.20;;;;;;;;;;4979245;28;20030;-93
2021/03/01 04:49:06;;;;;;;85.55;42.28;;;;;;;;;;4979153;28;20065;-93
2021/03/01 04:51:38;;;;;;;72.03;38.78;;;;;;;;;;4978172;28;20035;-93
2021/03/01 04:54:11;;;;;;;64.18;34.63;;;;;;;;;;4977822;28;20054;-92
2021/03/01 04:56:50;;;;;;;65.47;34.40;;;;;;;;;;4979581;28;20065;-96
2021/03/01 04:59:23;;;;;;;63.30;32.70;;;;;;;;;;4979137;28;20086;-93
2021/03/01 05:01:49;;;;;;;;;;;;;;;;;;4966868;28;20027;-93
2021/03/01 05:04:17;;;;;;;66.68;32.08;;;;;;;;;;4998771;28;19913;-94
2021/03/01 05:06:47;;;;;;;55.45;30.27;;;;;;;;;;4998548;28;20034;-94
2021/03/01 05:09:20;;;;;;;59.08;30.92;;;;;;;;;;4999875;28;20037;-95
2021/03/01 05:11:58;;;;;;;60.33;30.00;;;;;;;;;;4985714;28;20043;-95
2021/03/01 05:14:30;;;;;;;53.40;28.95;;;;;;;;;;4999169;28;20030;-95
2021/03/01 05:17:08;;;;;;;53.33;29.60;;;;;;;;;;4998314;28;20042;-94
2021/03/01 05:19:40;;;;;;;54.85;29.50;;;;;;;;;;4997602;28;20113;-94
2021/03/01 05:22:11;;;;;;;60.80;33.67;;;;;;;;;;4998377;28;20029;-95
2021/03/01 05:24:43;;;;;;;57.87;32.93;;;;;;;;;;4998347;28;20436;-91
2021/03/01 05:27:15;;;;;;;62.30;33.47;;;;;;;;;;4998207;28;20408;-91
2021/03/01 05:29:44;;;;;;;64.30;35.25;;;;;;;;;;4997722;28;20077;-93
2021/03/01 05:32:16;;;;;;;68.28;37.58;;;;;;;;;;4998236;28;20027;-94
2021/03/01 05:34:48;;;;;;;85.73;42.63;;;;;;;;;;4998136;28;20023;-93
2021/03/01 05:37:20;;;;;;;76.73;40.73;;;;;;;;;;4998048;28;20730;-95
2021/03/01 05:39:50;;;;;;;81.38;40.85;;;;;;;;;;4997283;28;20023;-96
2021/03/01 05:42:21;;;;;;;98.35;47.22;;;;;;;;;;4997998;28;20405;-95
2021/03/01 05:44:53;;;;;;;146.73;72.90;;;;;;;;;;4999035;28;20034;-95
2021/03/01 05:47:25;;;;;;;132.90;69.45;;;;;;;;;;5000722;28;20038;-96
2021/03/01 05:53:03;;;;;;;93.70;46.78;;;;;;;;;;4998893;28;20033;-92
2021/03/01 05:55:36;;;;;;;169.10;61.80;;;;;;;;;;4998098;28;20029;-95
2021/03/01 05:58:08;;;;;;;123.40;51.03;;;;;;;;;;4998000;28;20030;-93
2021/03/01 06:00:38;;;;;;;123.63;54.63;;;;;;;;;;4997807;28;20055;-92
2021/03/01 06:03:08;;;;;;;197.43;96.35;;;;;;;;;;4997892;28;20034;-93
2021/03/01 06:05:40;;;;;;;205.73;96.50;;;;;;;;;;4997080;28;20034;-93
2021/03/01 06:08:13;;;;;;;253.88;108.00;;;;;;;;;;5000320;28;20034;-94
2021/03/01 06:10:45;;;;;;;299.13;120.53;;;;;;;;;;5000820;28;20050;-94
2021/03/01 06:13:15;;;;;;;233.98;99.65;;;;;;;;;;5001783;28;20038;-94
2021/03/01 06:15:47;;;;;;;155.57;66.47;;;;;;;;;;5002303;28;20030;-95
2021/03/01 06:18:20;;;;;;;237.70;93.63;;;;;;;;;;5001440;28;20317;-94
2021/03/01 06:20:52;;;;;;;313.73;126.45;;;;;;;;;;5001609;28;20323;-93
2021/03/01 06:23:35;;;;;;;223.10;94.55;;;;;;;;;;5003405;28;20018;-96
2021/03/01 06:26:20;;;;;;;266.33;106.10;;;;;;;;;;5000676;28;20041;-92
2021/03/01 06:28:53;;;;;;;168.15;69.20;;;;;;;;;;5001123;28;20305;-91
2021/03/01 06:31:22;;;;;;;;;;;;;;;;;;5001597;28;20062;-89
2021/03/01 06:33:53;;;;;;;79.80;36.58;;;;;;;;;;5001461;28;19910;-93
2021/03/01 06:36:28;;;;;;;73.27;36.50;;;;;;;;;;5001367;28;20026;-94
2021/03/01 06:38:59;;;;;;;67.15;35.50;;;;;;;;;;5000991;28;20662;-94
2021/03/01 06:41:31;;;;;;;64.97;33.70;;;;;;;;;;5001200;28;20026;-94
2021/03/01 06:44:03;;;;;;;64.82;33.17;;;;;;;;;;4999952;28;20026;-93
2021/03/01 06:46:35;;;;;;;68.60;32.58;;;;;;;;;;5000880;28;20027;-93
2021/03/01 06:49:19;;;;;;;56.87;32.03;;;;;;;;;;5000795;28;20138;-94
2021/03/01 06:51:51;;;;;;;59.95;31.88;;;;;;;;;;5000636;28;20073;-94
2021/03/01 06:54:30;;;;;;;69.32;35.22;;;;;;;;;;5000925;28;20105;-94
2021/03/01 06:57:02;;;;;;;59.05;31.77;;;;;;;;;;5001001;28;20026;-94
2021/03/01 06:59:33;;;;;;;55.90;29.50;;;;;;;;;;4999942;28;20113;-92
2021/03/01 07:02:04;;;;;;;55.47;27.95;;;;;;;;;;4999722;28;20030;-93
2021/03/01 07:04:36;;;;;;;48.03;25.63;;;;;;;;;;5000849;28;20030;-94
2021/03/01 07:07:10;;;;;;;41.23;23.27;;;;;;;;;;5000645;28;20110;-94
2021/03/01 07:09:42;;;;;;;39.05;21.05;;;;;;;;;;5000595;28;20054;-94
2021/03/01 07:12:14;;;;;;;36.90;21.38;;;;;;;;;;4999554;28;20027;-93
2021/03/01 07:14:46;;;;;;;43.38;22.35;;;;;;;;;;4999220;28;20023;-93
2021/03/01 07:17:18;;;;;;;33.67;19.08;;;;;;;;;;5000056;28;20030;-93
2021/03/01 07:19:50;;;;;;;34.80;18.13;;;;;;;;;;5000503;28;20050;-93
2021/03/01 07:22:22;;;;;;;35.42;17.65;;;;;;;;;;4999486;28;20039;-93
2021/03/01 07:24:55;;;;;;;33.10;17.88;;;;;;;;;;5000298;28;20408;-94
2021/03/01 07:27:29;;;;;;;29.52;15.93;;;;;;;;;;5000147;28;20034;-93
2021/03/01 07:30:01;;;;;;;29.35;16.88;;;;;;;;;;4999871;28;20066;-93
2021/03/01 07:32:34;;;;;;;33.10;16.85;;;;;;;;;;5000225;28;20031;-94
2021/03/01 07:35:06;;;;;;;27.75;16.70;;;;;;;;;;5000238;28;20434;-93
2021/03/01 07:37:40;;;;;;;33.70;15.88;;;;;;;;;;4999194;28;20333;-93
2021/03/01 07:40:10;;;;;;;27.50;15.52;;;;;;;;;;5000401;28;20073;-93
2021/03/01 07:42:42;;;;;;;29.30;16.15;;;;;;;;;;4999087;28;20129;-93
2021/03/01 07:45:11;;;;;;;;;;;;;;;;;;5000485;28;20022;-93
2021/03/01 07:47:43;;;;;;;66.10;24.13;;;;;;;;;;4999778;28;19952;-93
2021/03/01 07:50:10;;;;;;;64.65;22.40;;;;;;;;;;5000036;28;20161;-93
2021/03/01 07:52:42;;;;;;;74.75;24.58;;;;;;;;;;4999765;28;20026;-93
2021/03/01 07:55:14;;;;;;;46.50;19.10;;;;;;;;;;4999912;28;20038;-93
2021/03/01 07:58:02;;;;;;;34.65;17.83;;;;;;;;;;4999813;28;20018;-94
2021/03/01 08:00:35;;;;;;;29.50;16.13;;;;;;;;;;4998593;28;20031;-93
2021/03/01 08:03:20;;;;;;;31.25;16.25;;;;;;;;;;4998380;28;20340;-93
2021/03/01 08:05:58;;;;;;;30.05;16.00;;;;;;;;;;4999962;28;20038;-93
2021/03/01 08:08:45;;;;;;;26.42;15.52;;;;;;;;;;4999310;28;20030;-93
2021/03/01 08:11:16;;;;;;;34.35;17.92;;;;;;;;;;4999411;28;20038;-93
2021/03/01 08:13:51;;;;;;;36.90;19.90;;;;;;;;;;4998415;28;20409;-93
2021/03/01 08:16:19;;;;;;;35.03;19.50;;;;;;;;;;4999236;28;20256;-93
2021/03/01 08:18:59;;;;;;;41.67;19.58;;;;;;;;;;4999217;28;20110;-93
2021/03/01 08:21:29;;;;;;;42.13;21.23;;;;;;;;;;4999056;28;20019;-93
2021/03/01 08:23:58;;;;;;;40.58;19.90;;;;;;;;;;4999154;28;20410;-93
2021/03/01 08:26:35;;;;;;;34.70;19.33;;;;;;;;;;4999194;28;20061;-93
2021/03/01 08:29:03;;;;;;;39.30;20.70;;;;;;;;;;4998412;28;20030;-93
2021/03/01 08:31:37;;;;;;;42.15;20.73;;;;;;;;;;4999111;28;20421;-93
2021/03/01 08:34:22;;;;;;;50.03;23.17;;;;;;;;;;4997881;28;20053;-93
2021/03/01 08:36:54;;;;;;;37.35;20.55;;;;;;;;;;4999134;28;20290;-92
2021/03/01 08:39:38;;;;;;;35.60;20.45;;;;;;;;;;4999092;28;20051;-93
2021/03/01 08:42:10;;;;;;;38.20;19.23;;;;;;;;;;4997764;28;20034;-92
2021/03/01 08:44:41;;;;;;;33.70;18.65;;;;;;;;;;4998918;28;20022;-93
2021/03/01 08:47:13;;;;;;;31.55;18.33;;;;;;;;;;4998718;28;20154;-93
2021/03/01 08:49:45;;;;;;;34.63;18.65;;;;;;;;;;4998785;28;20349;-92
2021/03/01 08:52:20;;;;;;;37.00;19.80;;;;;;;;;;4998652;28;20065;-92
2021/03/01 08:54:52;;;;;;;61.20;24.02;;;;;;;;;;4998707;28;20022;-92
2021/03/01 08:57:21;;;;;;;35.17;19.45;;;;;;;;;;4998727;28;20044;-92
2021/03/01 09:00:09;;;;;;;36.80;18.50;;;;;;;;;;4998436;28;20089;-91
2021/03/01 09:02:40;;;;;;;34.25;19.75;;;;;;;;;;4998347;28;20118;-93
2021/03/01 09:05:13;;;;;;;31.70;18.10;;;;;;;;;;4998606;28;20031;-92
2021/03/01 09:07:50;;;;;;;35.05;19.02;;;;;;;;;;4998512;28;20033;-93
2021/03/01 09:10:36;;;;;;;29.88;18.02;;;;;;;;;;4998304;28;20416;-92
2021/03/01 09:13:08;;;;;;;33.15;18.83;;;;;;;;;;4997449;28;20026;-93
2021/03/01 09:15:42;;;;;;;29.15;17.45;;;;;;;;;;4998350;28;20023;-93
2021/03/01 09:18:26;;;;;;;32.70;17.75;;;;;;;;;;4998217;28;20401;-93
2021/03/01 09:20:59;;;;;;;30.85;18.67;;;;;;;;;;4998344;28;20023;-93
2021/03/01 09:23:38;;;;;;;34.05;19.52;;;;;;;;;;4998328;28;20058;-93
2021/03/01 09:26:11;;;;;;;32.97;19.42;;;;;;;;;;4998044;28;20472;-93
2021/03/01 09:28:43;;;;;;;36.30;20.70;;;;;;;;;;4998134;28;20037;-93
2021/03/01 09:31:16;;;;;;;41.38;20.95;;;;;;;;;;4997870;28;20125;-92
2021/03/01 09:33:48;;;;;;;41.30;21.90;;;;;;;;;;4998243;28;20042;-92
2021/03/01 09:36:22;;;;;;;37.78;20.70;;;;;;;;;;4997364;28;20018;-93
2021/03/01 09:38:55;;;;;;;37.05;21.75;;;;;;;;;;4997301;28;20491;-92
2021/03/01 09:41:28;;;;;;;34.28;19.73;;;;;;;;;;4999591;28;20035;-92
2021/03/01 09:43:57;;;;;;;;;;;;;;;;;;5001738;28;20427;-92
2021/03/01 09:46:29;;;;;;;34.70;20.08;;;;;;;;;;5002125;28;19929;-92
2021/03/01 09:49:04;;;;;;;48.72;23.65;;;;;;;;;;5002058;28;20027;-92
2021/03/01 09:51:34;;;;;;;32.25;18.85;;;;;;;;;;5001889;28;20027;-92
2021/03/01 09:54:06;;;;;;;35.08;20.58;;;;;;;;;;5000787;28;20038;-92
2021/03/01 09:56:55;;;;;;;32.20;18.88;;;;;;;;;;5001861;28;20026;-92
2021/03/01 09:59:33;;;;;;;31.63;18.83;;;;;;;;;;5001850;28;20098;-91
2021/03/01 10:02:09;;;;;;;31.67;17.95;;;;;;;;;;5001743;28;20042;-91
2021/03/01 10:04:38;;;;;;;31.10;18.52;;;;;;;;;;5001611;28;20039;-91
2021/03/01 10:07:22;;;;;;;30.77;17.02;;;;;;;;;;5001754;28;20432;-91
2021/03/01 10:09:49;;;;;;;29.67;15.88;;;;;;;;;;5001860;28;20030;-92
2021/03/01 10:12:15;;;;;;;28.02;16.52;;;;;;;;;;4999230;28;20085;-92
2021/03/01 10:14:44;;;;;;;28.40;15.80;;;;;;;;;;4982193;28;20049;-91
2021/03/01 10:17:17;;;;;;;27.38;16.25;;;;;;;;;;4980995;28;20117;-93
2021/03/01 10:19:51;;;;;;;28.38;15.98;;;;;;;;;;4982742;28;20437;-92
2021/03/01 10:22:23;;;;;;;29.23;16.55;;;;;;;;;;4982190;28;20027;-91
2021/03/01 10:24:54;;;;;;;28.10;15.82;;;;;;;;;;4982080;28;20035;-92
2021/03/01 10:27:39;;;;;;;24.25;16.30;;;;;;;;;;4981902;28;20030;-91
2021/03/01 10:30:11;;;;;;;24.95;16.00;;;;;;;;;;4980624;28;20051;-90
2021/03/01 10:32:37;;;;;;;;;;;;;;;;;;4981876;28;20046;-91
2021/03/01 10:35:19;;;;;;;41.00;20.65;;;;;;;;;;4981748;28;20296;-92
2021/03/01 10:38:08;;;;;;;30.02;16.38;;;;;;;;;;4980986;28;20023;-92
2021/03/01 10:40:40;;;;;;;28.83;16.15;;;;;;;;;;4981783;28;20034;-90
2021/03/01 10:43:15;;;;;;;29.42;16.55;;;;;;;;;;4981696;28;20435;-91
2021/03/01 10:45:50;;;;;;;32.00;16.67;;;;;;;;;;4980737;28;20039;-91
2021/03/01 10:48:22;;;;;;;33.83;19.13;;;;;;;;;;4980497;28;20026;-91
2021/03/01 10:50:53;;;;;;;31.08;17.80;;;;;;;;;;4980526;28;20027;-91
2021/03/01 10:53:25;;;;;;;32.08;19.70;;;;;;;;;;4980356;28;20034;-91
2021/03/01 10:55:57;;;;;;;31.85;17.73;;;;;;;;;;4980435;28;20112;-92
2021/03/01 10:58:29;;;;;;;35.60;18.77;;;;;;;;;;4981377;28;20378;-92
2021/03/01 11:01:01;;;;;;;34.83;19.25;;;;;;;;;;4980336;28;20035;-90
2021/03/01 11:03:33;;;;;;;31.30;17.27;;;;;;;;;;4981447;28;20035;-91
2021/03/01 11:06:04;;;;;;;38.00;19.55;;;;;;;;;;4981166;28;20105;-91
2021/03/01 11:08:36;;;;;;;30.60;18.17;;;;;;;;;;4981311;28;20031;-91
2021/03/01 11:11:08;;;;;;;26.30;15.45;;;;;;;;;;4981016;28;20027;-91
2021/03/01 11:13:40;;;;;;;30.38;16.08;;;;;;;;;;4980055;28;20038;-91
2021/03/01 11:16:12;;;;;;;27.95;17.00;;;;;;;;;;4980901;28;20190;-91
2021/03/01 11:18:45;;;;;;;29.90;18.00;;;;;;;;;;4981036;28;20034;-91
2021/03/01 11:21:17;;;;;;;31.38;17.27;;;;;;;;;;4980077;28;20026;-91
2021/03/01 11:23:46;;;;;;;;;;;;;;;;;;4981596;28;20418;-91
2021/03/01 11:26:17;;;;;;;26.15;16.15;;;;;;;;;;4981029;28;20190;-91
2021/03/01 11:28:49;;;;;;;30.08;17.13;;;;;;;;;;4979831;28;20328;-91
2021/03/01 11:31:22;;;;;;;30.25;16.27;;;;;;;;;;4979631;28;20042;-91
2021/03/01 11:33:54;;;;;;;24.73;16.00;;;;;;;;;;4980548;28;20063;-91
2021/03/01 11:36:23;;;;;;;;;;;;;;;;;;4981077;28;20030;-91
2021/03/01 11:38:55;;;;;;;24.83;15.90;;;;;;;;;;4979709;28;20005;-91
2021/03/01 11:41:27;;;;;;;30.27;17.58;;;;;;;;;;4979372;28;20121;-92
2021/03/01 11:43:59;;;;;;;30.73;18.48;;;;;;;;;;4980625;28;20034;-91
2021/03/01 11:46:31;;;;;;;31.67;18.33;;;;;;;;;;4980521;28;20026;-91
2021/03/01 11:49:02;;;;;;;35.80;20.55;;;;;;;;;;4980488;28;20053;-90
2021/03/01 11:51:34;;;;;;;34.03;18.23;;;;;;;;;;4979452;28;20030;-89
2021/03/01 11:54:05;;;;;;;33.05;20.30;;;;;;;;;;4980186;28;20062;-91
2021/03/01 11:56:37;;;;;;;34.85;18.13;;;;;;;;;;4963616;28;20109;-91
2021/03/01 11:59:09;;;;;;;42.60;25.25;;;;;;;;;;4979180;28;20027;-90
2021/03/01 12:01:41;;;;;;;34.70;21.63;;;;;;;;;;4980043;28;20414;-90
2021/03/01 12:04:12;;;;;;;31.10;19.38;;;;;;;;;;4979949;28;20030;-91
2021/03/01 12:06:39;;;;;;;30.02;18.40;;;;;;;;;;4979926;28;20074;-90
2021/03/01 12:09:13;;;;;;;33.90;20.67;;;;;;;;;;4980288;28;20023;-90
2021/03/01 12:11:45;;;;;;;29.05;18.13;;;;;;;;;;4979018;28;20039;-90
2021/03/01 12:14:17;;;;;;;26.25;18.15;;;;;;;;;;4979038;28;20023;-90
2021/03/01 12:16:46;;;;;;;29.25;19.10;;;;;;;;;;4978852;28;20034;-90
2021/03/01 12:19:18;;;;;;;32.42;19.40;;;;;;;;;;4979533;28;20019;-89
2021/03/01 12:21:50;;;;;;;34.67;21.20;;;;;;;;;;4979939;28;20031;-90
2021/03/01 12:24:22;;;;;;;35.90;18.92;;;;;;;;;;4978771;28;20042;-90
2021/03/01 12:26:54;;;;;;;27.05;18.25;;;;;;;;;;4978802;28;20026;-90
2021/03/01 12:29:26;;;;;;;28.90;18.83;;;;;;;;;;4979579;28;20062;-90
2021/03/01 12:31:52;;;;;;;32.40;21.00;;;;;;;;;;4978634;28;20361;-89
2021/03/01 12:34:21;;;;;;;29.85;20.00;;;;;;;;;;4988930;28;20413;-90
2021/03/01 12:36:48;;;;;;;30.67;18.70;;;;;;;;;;4999097;28;20023;-90
2021/03/01 12:39:15;;;;;;;30.92;18.65;;;;;;;;;;4999155;28;20022;-90
2021/03/01 12:42:07;;;;;;;28.23;17.98;;;;;;;;;;4997924;28;20042;-90
2021/03/01 12:44:39;;;;;;;31.40;19.27;;;;;;;;;;4977833;28;20045;-90
2021/03/01 12:47:11;;;;;;;36.97;19.48;;;;;;;;;;4961605;28;20058;-90
2021/03/01 12:49:43;;;;;;;30.50;19.80;;;;;;;;;;4961706;28;20049;-90
2021/03/01 12:52:14;;;;;;;28.00;18.30;;;;;;;;;;4961617;28;20027;-90
2021/03/01 12:54:49;;;;;;;26.40;16.38;;;;;;;;;;4977630;28;20034;-91
2021/03/01 12:57:20;;;;;;;30.70;17.60;;;;;;;;;;4961486;28;20405;-90
2021/03/01 12:59:54;;;;;;;30.47;19.87;;;;;;;;;;4961309;28;20054;-90
2021/03/01 13:02:26;;;;;;;62.47;33.78;;;;;;;;;;4977418;28;20260;-90
2021/03/01 13:04:57;;;;;;;26.25;15.90;;;;;;;;;;4977560;28;20175;-90
2021/03/01 13:07:29;;;;;;;26.30;15.10;;;;;;;;;;4977358;28;20031;-90
2021/03/01 13:10:00;;;;;;;24.92;14.50;;;;;;;;;;4977525;28;20417;-90
2021/03/01 13:12:32;;;;;;;28.38;16.40;;;;;;;;;;4977336;28;20039;-90
2021/03/01 13:15:03;;;;;;;25.02;16.35;;;;;;;;;;4960592;28;20422;-90
2021/03/01 13:17:35;;;;;;;22.60;15.00;;;;;;;;;;4977288;28;20433;-89
2021/03/01 13:20:07;;;;;;;23.88;15.82;;;;;;;;;;4960951;28;20193;-89
2021/03/01 13:22:40;;;;;;;26.20;15.38;;;;;;;;;;4995079;28;20034;-90
2021/03/01 13:25:12;;;;;;;22.58;14.55;;;;;;;;;;4998525;28;20027;-89
2021/03/01 13:27:44;;;;;;;23.77;15.25;;;;;;;;;;4998365;28;20022;-90
2021/03/01 13:30:18;;;;;;;23.77;15.02;;;;;;;;;;4997793;28;20038;-88
2021/03/01 13:32:50;;;;;;;22.55;14.65;;;;;;;;;;4998176;28;20088;-89
2021/03/01 13:35:20;;;;;;;22.50;14.93;;;;;;;;;;4997008;28;20036;-88
2021/03/01 13:37:52;;;;;;;22.35;14.23;;;;;;;;;;4998250;28;20097;-88
2021/03/01 13:40:24;;;;;;;25.50;16.40;;;;;;;;;;4998119;28;20513;-89
2021/03/01 13:42:56;;;;;;;24.80;16.38;;;;;;;;;;4997165;28;20137;-89
2021/03/01 13:45:27;;;;;;;27.98;17.50;;;;;;;;;;4997922;28;20492;-88
2021/03/01 13:47:59;;;;;;;22.80;14.82;;;;;;;;;;4998127;28;20043;-89
2021/03/01 13:50:31;;;;;;;26.38;15.50;;;;;;;;;;4998206;28;20026;-88
2021/03/01 13:53:02;;;;;;;20.83;13.85;;;;;;;;;;4998149;28;20110;-88
2021/03/01 13:55:35;;;;;;;22.23;13.93;;;;;;;;;;4996982;28;20054;-87
2021/03/01 13:58:07;;;;;;;23.98;14.70;;;;;;;;;;4997012;28;20104;-88
2021/03/01 14:00:38;;;;;;;19.52;14.18;;;;;;;;;;4997806;28;20402;-88
2021/03/01 14:03:09;;;;;;;20.88;14.60;;;;;;;;;;4997855;28;20054;-88
2021/03/01 14:05:41;;;;;;;22.00;14.93;;;;;;;;;;4997807;28;20030;-89
2021/03/01 14:08:13;;;;;;;24.02;14.50;;;;;;;;;;4997833;28;20417;-87
2021/03/01 14:10:45;;;;;;;28.30;16.27;;;;;;;;;;4997812;28;20058;-87
2021/03/01 14:13:17;;;;;;;26.58;16.15;;;;;;;;;;4996903;28;20023;-88
2021/03/01 14:15:48;;;;;;;22.40;14.63;;;;;;;;;;4996929;28;20030;-88
2021/03/01 14:18:21;;;;;;;25.85;15.32;;;;;;;;;;4997474;28;20073;-88
2021/03/01 14:20:53;;;;;;;22.85;14.20;;;;;;;;;;4997745;28;20023;-87
2021/03/01 14:23:25;;;;;;;19.98;13.82;;;;;;;;;;4996925;28;20030;-88
2021/03/01 14:25:57;;;;;;;23.25;12.38;;;;;;;;;;4996773;28;20448;-86
2021/03/01 14:28:24;;;;;;;22.50;13.63;;;;;;;;;;4999659;28;20417;-88
2021/03/01 14:30:56;;;;;;;17.92;12.32;;;;;;;;;;5000780;28;20068;-89
2021/03/01 14:33:28;;;;;;;18.10;12.05;;;;;;;;;;5001293;28;20038;-89
2021/03/01 14:36:00;;;;;;;19.05;12.15;;;;;;;;;;5000310;28;20068;-89
2021/03/01 14:38:32;;;;;;;21.23;14.05;;;;;;;;;;5000170;28;20109;-88
2021/03/01 14:41:03;;;;;;;22.85;13.57;;;;;;;;;;5001094;28;20034;-90
2021/03/01 14:43:38;;;;;;;17.80;12.45;;;;;;;;;;4999949;28;20038;-89
2021/03/01 14:46:10;;;;;;;17.67;11.85;;;;;;;;;;5000833;28;20026;-89
2021/03/01 14:48:42;;;;;;;16.02;11.00;;;;;;;;;;4999894;28;20142;-88
2021/03/01 14:51:14;;;;;;;18.38;11.75;;;;;;;;;;5001119;28;20054;-89
2021/03/01 14:53:45;;;;;;;18.95;11.55;;;;;;;;;;5000861;28;20431;-89
2021/03/01 14:56:15;;;;;;;14.48;9.50;;;;;;;;;;5000919;28;20098;-89
2021/03/01 14:58:46;;;;;;;14.88;9.63;;;;;;;;;;5000723;28;20030;-89
2021/03/01 15:01:18;;;;;;;20.95;13.30;;;;;;;;;;4999853;28;20153;-89
2021/03/01 15:03:50;;;;;;;17.83;11.13;;;;;;;;;;5000517;28;20037;-76
2021/03/01 15:06:22;;;;;;;16.42;10.25;;;;;;;;;;4999129;28;20303;-76
2021/03/01 15:08:54;;;;;;;19.60;10.57;;;;;;;;;;5000102;28;20471;-76
2021/03/01 15:11:28;;;;;;;24.45;14.38;;;;;;;;;;5000036;28;20046;-76
2021/03/01 15:14:02;;;;;;;14.82;8.88;;;;;;;;;;5000000;28;20111;-76
2021/03/01 15:16:36;;;;;;;20.67;11.07;;;;;;;;;;5001026;28;20019;-95
2021/03/01 15:19:08;;;;;;;25.15;15.18;;;;;;;;;;5001166;28;20026;-96
2021/03/01 15:21:41;;;;;;;21.00;13.50;;;;;;;;;;5001349;28;20019;-95
2021/03/01 15:24:10;;;;;;;16.50;11.30;;;;;;;;;;5004457;28;20038;-95